Pires Coelho — CUPM6 — position and weather

sailwx.info

Track history (hours):
 
Tides and Currents Weather Stations Pressure Air Temp Water Temp Dewpoint Dewpoint Depression Visibility Wind Speed Wind Dir Waves Ship Positions

Pires Coelho

Last reported at 2014-Nov-24 09:08 UTC. Time now 2014-Nov-24 16:30 UTC.
Position N 36°50' W 008°03'.

Length 27 m.

Type: Ship. MMSI: 263236000.

Date/timePositionNaut miles runAvg speedWind from/ knotsBaromVisibWave heightAir tempDewpointWater temp
2014-Nov-24 09:08N 36°50' W 008°03'5 3.0
2014-Nov-24 07:27N 36°52' W 007°57'8 4.0
2014-Nov-24 05:19N 36°56' W 008°06'7 9.0
2014-Nov-24 04:34N 36°59' W 008°14'9 9.4
2014-Nov-24 03:34N 37°03' W 008°24'8 7.2
2014-Nov-24 02:30N 37°08' W 008°32'0 0.0
2014-Nov-24 01:33N 37°08' W 008°32'0 0.0
2014-Nov-24 00:28N 37°08' W 008°32'0 0.0
2014-Nov-23 23:16N 37°08' W 008°32'0 0.0
2014-Nov-23 22:31N 37°08' W 008°32'0 0.0
2014-Nov-23 21:33N 37°08' W 008°32'6 6.1
2014-Nov-23 20:33N 37°03' W 008°27'9 9.4
2014-Nov-23 19:33N 36°58' W 008°17'11 7.4
2014-Nov-23 18:03N 36°52' W 008°05'3 0.7
2014-Nov-23 13:15N 36°51' W 008°01'2 2.9
2014-Nov-23 12:31N 36°50' W 008°04'3 2.8
2014-Nov-23 11:21N 36°49' W 008°08'1 0.8
2014-Nov-23 10:28N 36°49' W 008°09'3 3.0
2014-Nov-23 09:33N 36°50' W 008°05'3 1.0
2014-Nov-23 06:06N 36°52' W 008°02'1 1.3
2014-Nov-23 05:33N 36°52' W 008°03'5 2.5
2014-Nov-23 03:26N 36°50' W 008°09'7 8.3
2014-Nov-23 02:33N 36°55' W 008°16'9 9.3
2014-Nov-23 01:33N 37°01' W 008°24'9 8.8
2014-Nov-23 00:33N 37°08' W 008°32'0 0.4
2014-Nov-22 23:28N 37°08' W 008°32'0 0.0
2014-Nov-22 22:22N 37°08' W 008°32'0 0.0
2014-Nov-22 21:27N 37°08' W 008°32'0 0.0
2014-Nov-22 20:31N 37°08' W 008°32'0 0.0
2014-Nov-22 19:30N 37°08' W 008°32'0 0.0
2014-Nov-22 18:29N 37°08' W 008°32'0 0.1
2014-Nov-22 17:29N 37°08' W 008°32'0 0.0
2014-Nov-22 16:28N 37°08' W 008°32'0 0.1
2014-Nov-22 15:31N 37°08' W 008°32'  
Track history (hours):
 
Tides and Currents Weather Stations Pressure Air Temp Water Temp Dewpoint Dewpoint Depression Visibility Wind Speed Wind Dir Waves Ship Positions

Pires Coelho

Last reported at 2014-Nov-24 09:08 UTC. Time now 2014-Nov-24 16:30 UTC.
Position N 36°50' W 008°03'.

Length 27 m.

Type: Ship. MMSI: 263236000.

Date/timePositionNaut miles runAvg speedWind from/ knotsBaromVisibWave heightAir tempDewpointWater temp
2014-Nov-24 09:08N 36°50' W 008°03'5 3.0
2014-Nov-24 07:27N 36°52' W 007°57'8 4.0
2014-Nov-24 05:19N 36°56' W 008°06'7 9.0
2014-Nov-24 04:34N 36°59' W 008°14'9 9.4
2014-Nov-24 03:34N 37°03' W 008°24'8 7.2
2014-Nov-24 02:30N 37°08' W 008°32'0 0.0
2014-Nov-24 01:33N 37°08' W 008°32'0 0.0
2014-Nov-24 00:28N 37°08' W 008°32'0 0.0
2014-Nov-23 23:16N 37°08' W 008°32'0 0.0
2014-Nov-23 22:31N 37°08' W 008°32'0 0.0
2014-Nov-23 21:33N 37°08' W 008°32'6 6.1
2014-Nov-23 20:33N 37°03' W 008°27'9 9.4
2014-Nov-23 19:33N 36°58' W 008°17'11 7.4
2014-Nov-23 18:03N 36°52' W 008°05'3 0.7
2014-Nov-23 13:15N 36°51' W 008°01'2 2.9
2014-Nov-23 12:31N 36°50' W 008°04'3 2.8
2014-Nov-23 11:21N 36°49' W 008°08'1 0.8
2014-Nov-23 10:28N 36°49' W 008°09'3 3.0
2014-Nov-23 09:33N 36°50' W 008°05'3 1.0
2014-Nov-23 06:06N 36°52' W 008°02'1 1.3
2014-Nov-23 05:33N 36°52' W 008°03'5 2.5
2014-Nov-23 03:26N 36°50' W 008°09'7 8.3
2014-Nov-23 02:33N 36°55' W 008°16'9 9.3
2014-Nov-23 01:33N 37°01' W 008°24'9 8.8
2014-Nov-23 00:33N 37°08' W 008°32'0 0.4
2014-Nov-22 23:28N 37°08' W 008°32'0 0.0
2014-Nov-22 22:22N 37°08' W 008°32'0 0.0
2014-Nov-22 21:27N 37°08' W 008°32'0 0.0
2014-Nov-22 20:31N 37°08' W 008°32'0 0.0
2014-Nov-22 19:30N 37°08' W 008°32'0 0.0
2014-Nov-22 18:29N 37°08' W 008°32'0 0.1
2014-Nov-22 17:29N 37°08' W 008°32'0 0.0
2014-Nov-22 16:28N 37°08' W 008°32'0 0.1
2014-Nov-22 15:31N 37°08' W 008°32'  

Dump ship's entire track history